createdAt,value
2023-02-14T00:02:42.380Z,13.47
2023-02-14T00:05:29.784Z,13.00
2023-02-14T00:08:17.273Z,13.27
2023-02-14T00:11:05.498Z,14.00
2023-02-14T00:14:11.562Z,15.53
2023-02-14T00:16:58.941Z,14.20
2023-02-14T00:19:46.350Z,14.93
2023-02-14T00:22:33.731Z,15.20
2023-02-14T00:25:21.124Z,13.93
2023-02-14T00:28:08.474Z,14.70
2023-02-14T00:30:58.070Z,12.57
2023-02-14T00:33:45.706Z,13.10
2023-02-14T00:36:33.472Z,14.87
2023-02-14T00:39:20.910Z,12.90
2023-02-14T00:42:08.266Z,12.83
2023-02-14T00:44:55.652Z,13.37
2023-02-14T00:47:42.991Z,14.40
2023-02-14T00:50:30.362Z,13.23
2023-02-14T00:53:17.776Z,13.33
2023-02-14T00:56:05.362Z,12.53
2023-02-14T00:58:52.700Z,12.00
2023-02-14T01:01:40.066Z,12.80
2023-02-14T01:04:27.538Z,14.67
2023-02-14T01:07:14.954Z,14.20
2023-02-14T01:10:02.379Z,13.60
2023-02-14T01:12:49.884Z,14.03
2023-02-14T01:15:41.544Z,13.83
2023-02-14T01:18:28.924Z,12.23
2023-02-14T01:21:21.110Z,13.40
2023-02-14T01:24:08.702Z,13.67
2023-02-14T01:26:56.062Z,13.43
2023-02-14T01:29:43.483Z,14.10
2023-02-14T01:32:31.907Z,13.47
2023-02-14T01:35:19.344Z,15.07
2023-02-14T01:38:06.715Z,13.90
2023-02-14T01:40:54.093Z,14.33
2023-02-14T01:43:57.023Z,13.67
2023-02-14T01:46:45.182Z,14.77
2023-02-14T01:49:40.187Z,15.63
2023-02-14T01:52:35.722Z,15.10
2023-02-14T01:55:25.432Z,14.23
2023-02-14T01:58:16.175Z,14.03
2023-02-14T02:01:04.468Z,14.77
2023-02-14T02:03:56.478Z,14.17
2023-02-14T02:06:49.453Z,14.33
2023-02-14T02:09:45.306Z,13.90
2023-02-14T02:12:35.417Z,15.13
2023-02-14T02:15:26.154Z,13.83
2023-02-14T02:18:21.562Z,11.90
2023-02-14T02:21:21.094Z,13.53
2023-02-14T02:24:20.450Z,14.87
2023-02-14T02:27:17.221Z,15.43
2023-02-14T02:30:13.888Z,14.90
2023-02-14T02:33:13.128Z,13.97
2023-02-14T02:36:18.321Z,14.83
2023-02-14T02:39:24.616Z,15.17
2023-02-14T02:42:30.939Z,14.77
2023-02-14T02:45:18.270Z,15.83
2023-02-14T02:48:18.477Z,15.73
2023-02-14T02:51:26.664Z,15.40
2023-02-14T02:54:18.599Z,14.73
2023-02-14T02:57:08.293Z,15.37
2023-02-14T02:59:57.059Z,14.90
2023-02-14T03:03:11.016Z,14.57
2023-02-14T03:05:58.585Z,14.87
2023-02-14T03:08:45.927Z,15.27
2023-02-14T03:11:33.338Z,14.40
2023-02-14T03:14:24.277Z,15.00
2023-02-14T03:17:23.453Z,16.37
2023-02-14T03:20:15.833Z,15.10
2023-02-14T03:23:09.043Z,15.93
2023-02-14T03:26:07.760Z,14.70
2023-02-14T03:29:10.633Z,15.70
2023-02-14T03:32:20.042Z,15.90
2023-02-14T03:35:07.441Z,15.40
2023-02-14T03:37:57.858Z,15.63
2023-02-14T03:40:45.201Z,14.27
2023-02-14T03:43:34.437Z,16.13
2023-02-14T03:46:25.096Z,15.77
2023-02-14T03:49:14.863Z,14.57
2023-02-14T03:52:03.289Z,16.00
2023-02-14T03:54:52.264Z,15.43
2023-02-14T03:57:47.931Z,17.77
2023-02-14T04:00:37.657Z,17.73
2023-02-14T04:03:26.129Z,16.40
2023-02-14T04:06:13.612Z,16.67
2023-02-14T04:09:01.014Z,17.83
2023-02-14T04:11:50.282Z,16.67
2023-02-14T04:14:37.829Z,18.17
2023-02-14T04:17:43.839Z,17.50
2023-02-14T04:20:31.335Z,17.20
2023-02-14T04:23:18.685Z,17.90
2023-02-14T04:26:06.101Z,17.53
2023-02-14T04:28:53.519Z,17.23
2023-02-14T04:31:40.918Z,18.37
2023-02-14T04:34:28.325Z,18.03
2023-02-14T04:37:16.668Z,17.60
2023-02-14T04:40:04.105Z,18.93
2023-02-14T04:42:51.501Z,16.87
2023-02-14T04:45:38.891Z,17.07
2023-02-14T04:48:26.270Z,18.70
2023-02-14T04:51:13.655Z,18.63
2023-02-14T04:54:01.042Z,17.13
2023-02-14T04:56:48.452Z,17.37
2023-02-14T04:59:35.862Z,18.30
2023-02-14T05:02:23.515Z,17.27
2023-02-14T05:05:11.132Z,18.70
2023-02-14T05:07:58.529Z,18.80
2023-02-14T05:10:45.906Z,18.73
2023-02-14T05:13:33.294Z,18.57
2023-02-14T05:16:20.677Z,18.80
2023-02-14T05:19:08.131Z,19.03
2023-02-14T05:21:55.495Z,19.20
2023-02-14T05:24:42.859Z,20.67
2023-02-14T05:27:30.358Z,20.67
2023-02-14T05:30:18.235Z,18.97
2023-02-14T05:33:05.744Z,21.33
2023-02-14T05:35:53.153Z,20.73
2023-02-14T05:38:40.497Z,20.07
2023-02-14T05:41:27.948Z,20.53
2023-02-14T05:44:15.308Z,19.63
2023-02-14T05:47:02.871Z,27.58
2023-02-14T05:49:50.241Z,21.67
2023-02-14T05:52:38.090Z,20.53
2023-02-14T05:55:26.155Z,20.47
2023-02-14T05:58:13.647Z,25.63
2023-02-14T06:01:01.767Z,21.60
2023-02-14T06:03:49.370Z,24.45
2023-02-14T06:06:36.931Z,19.60
2023-02-14T06:09:24.714Z,19.83
2023-02-14T06:12:12.074Z,19.70
2023-02-14T06:14:59.417Z,20.73
2023-02-14T06:17:51.520Z,21.63
2023-02-14T06:20:38.907Z,20.07
2023-02-14T06:23:26.249Z,19.43
2023-02-14T06:26:13.587Z,21.20
2023-02-14T06:29:00.958Z,19.87
2023-02-14T06:31:48.444Z,20.60
2023-02-14T06:34:35.927Z,19.77
2023-02-14T06:37:23.344Z,20.63
2023-02-14T06:40:10.958Z,20.70
2023-02-14T06:42:58.389Z,20.30
2023-02-14T06:45:47.179Z,19.40
2023-02-14T06:48:34.575Z,19.30
2023-02-14T06:51:21.925Z,20.63
2023-02-14T06:54:09.309Z,19.40
2023-02-14T06:56:56.658Z,20.97
2023-02-14T06:59:44.020Z,20.17
2023-02-14T07:02:31.488Z,21.00
2023-02-14T07:05:19.009Z,22.30
2023-02-14T07:08:08.067Z,20.93
2023-02-14T07:10:59.129Z,20.87
2023-02-14T07:13:49.175Z,21.63
2023-02-14T07:16:36.858Z,21.67
2023-02-14T07:19:24.208Z,21.80
2023-02-14T07:22:11.557Z,21.93
2023-02-14T07:24:58.977Z,22.17
2023-02-14T07:27:46.379Z,22.47
2023-02-14T07:30:33.832Z,22.70
2023-02-14T07:33:21.240Z,22.47
2023-02-14T07:36:09.186Z,23.47
2023-02-14T07:38:57.368Z,22.63
2023-02-14T07:41:44.684Z,22.93
2023-02-14T07:44:32.041Z,21.43
2023-02-14T07:47:19.396Z,21.83
2023-02-14T07:50:08.015Z,23.00
2023-02-14T07:52:55.858Z,22.47
2023-02-14T07:55:43.261Z,24.00
2023-02-14T07:58:30.627Z,22.20
2023-02-14T08:01:18.243Z,23.00
2023-02-14T08:04:05.724Z,22.90
2023-02-14T08:06:54.025Z,22.53
2023-02-14T08:09:41.370Z,22.03
2023-02-14T08:12:47.576Z,22.20
2023-02-14T08:15:54.392Z,22.23
2023-02-14T08:18:42.312Z,21.50
2023-02-14T08:21:29.766Z,22.17
2023-02-14T08:24:17.140Z,23.57
2023-02-14T08:27:04.571Z,21.67
2023-02-14T08:29:52.059Z,22.43
2023-02-14T08:32:39.695Z,21.07
2023-02-14T08:35:27.351Z,20.67
2023-02-14T08:38:15.095Z,22.27
2023-02-14T08:41:05.871Z,21.57
2023-02-14T08:43:55.065Z,20.83
2023-02-14T08:46:42.504Z,22.30
2023-02-14T08:49:29.872Z,21.30
2023-02-14T08:52:17.363Z,21.73
2023-02-14T08:55:05.282Z,20.93
2023-02-14T08:57:52.815Z,21.33
2023-02-14T09:00:40.358Z,20.73
2023-02-14T09:03:27.766Z,20.93
2023-02-14T09:06:17.432Z,19.97
2023-02-14T09:09:05.078Z,19.90
2023-02-14T09:11:52.450Z,18.73
2023-02-14T09:14:41.667Z,19.33
2023-02-14T09:17:30.138Z,17.17
2023-02-14T09:20:17.731Z,18.10
2023-02-14T09:23:05.209Z,17.10
2023-02-14T09:25:52.656Z,17.23
2023-02-14T09:28:40.602Z,17.77
2023-02-14T09:31:28.028Z,17.53
2023-02-14T09:34:15.434Z,18.00
2023-02-14T09:37:21.798Z,18.50
2023-02-14T09:40:09.707Z,16.87
2023-02-14T09:42:57.371Z,18.50
2023-02-14T09:45:49.882Z,17.87
2023-02-14T09:48:38.900Z,17.57
2023-02-14T09:51:28.740Z,17.90
2023-02-14T09:54:21.865Z,16.33
2023-02-14T09:57:16.029Z,17.93
2023-02-14T10:00:11.930Z,17.13
2023-02-14T10:03:15.766Z,16.37
2023-02-14T10:06:03.138Z,18.10
2023-02-14T10:09:03.428Z,16.93
2023-02-14T10:11:50.978Z,17.53
2023-02-14T10:14:40.863Z,17.73
2023-02-14T10:17:41.378Z,17.20
2023-02-14T10:20:39.785Z,16.23
2023-02-14T10:23:32.691Z,16.33
2023-02-14T10:26:27.642Z,17.20
2023-02-14T10:29:16.601Z,16.30
2023-02-14T10:32:05.115Z,16.33
2023-02-14T10:34:52.556Z,17.23
2023-02-14T10:37:58.582Z,16.00
2023-02-14T10:41:06.003Z,16.97
2023-02-14T10:44:14.682Z,17.00
2023-02-14T10:47:02.181Z,17.60
2023-02-14T10:50:02.628Z,17.13
2023-02-14T10:52:58.936Z,16.45
2023-02-14T10:56:05.298Z,16.98
2023-02-14T10:58:53.227Z,16.52
2023-02-14T11:01:40.718Z,16.83
2023-02-14T11:04:28.817Z,16.50
2023-02-14T11:07:21.477Z,15.77
2023-02-14T11:10:14.716Z,16.30
2023-02-14T11:13:02.124Z,15.10
2023-02-14T11:15:51.706Z,16.67
2023-02-14T11:18:42.037Z,15.77
2023-02-14T11:21:37.195Z,18.03
2023-02-14T11:24:38.823Z,16.00
2023-02-14T11:27:26.318Z,14.87
2023-02-14T11:30:19.278Z,15.27
2023-02-14T11:33:07.718Z,16.50
2023-02-14T11:35:55.166Z,15.60
2023-02-14T11:38:43.909Z,15.97
2023-02-14T11:41:46.720Z,15.83
2023-02-14T11:44:37.252Z,16.73
2023-02-14T11:47:32.255Z,17.03
2023-02-14T11:50:25.976Z,16.73
2023-02-14T11:53:14.120Z,14.90
2023-02-14T11:56:01.868Z,16.00
2023-02-14T11:58:57.543Z,16.30
2023-02-14T12:01:46.736Z,15.10
2023-02-14T12:04:45.787Z,15.63
2023-02-14T12:07:34.926Z,16.47
2023-02-14T12:10:24.396Z,16.63
2023-02-14T12:13:11.706Z,16.00
2023-02-14T12:15:59.736Z,17.27
2023-02-14T12:18:53.566Z,16.87
2023-02-14T12:21:47.699Z,16.33
2023-02-14T12:24:40.137Z,16.13
2023-02-14T12:27:35.368Z,16.07
2023-02-14T12:30:23.978Z,16.17
2023-02-14T12:33:19.687Z,16.97
2023-02-14T12:36:15.044Z,17.37
2023-02-14T12:39:08.538Z,15.80
2023-02-14T12:42:02.749Z,15.77
2023-02-14T12:44:56.090Z,16.07
2023-02-14T12:47:56.101Z,16.23
2023-02-14T12:51:02.909Z,16.83
2023-02-14T12:54:01.068Z,16.40
2023-02-14T12:56:59.904Z,17.10
2023-02-14T13:00:06.185Z,16.67
2023-02-14T13:03:12.280Z,16.37
2023-02-14T13:06:08.253Z,17.07
2023-02-14T13:09:01.905Z,18.80
2023-02-14T13:11:53.442Z,15.93
2023-02-14T13:14:56.107Z,16.90
2023-02-14T13:17:47.881Z,17.10
2023-02-14T13:20:54.785Z,15.70
2023-02-14T13:23:44.423Z,17.07
2023-02-14T13:26:40.213Z,16.73
2023-02-14T13:30:01.012Z,17.03
2023-02-14T13:32:51.177Z,16.00
2023-02-14T13:35:38.915Z,18.00
2023-02-14T13:38:27.239Z,17.57
2023-02-14T13:41:15.780Z,17.60
2023-02-14T13:44:05.275Z,17.47
2023-02-14T13:46:52.934Z,16.53
2023-02-14T13:49:46.504Z,15.87
2023-02-14T13:52:44.923Z,15.53
2023-02-14T13:55:35.506Z,16.90
2023-02-14T13:58:24.061Z,16.77
2023-02-14T14:01:29.509Z,16.30
2023-02-14T14:04:30.068Z,28.27
2023-02-14T14:07:19.347Z,18.40
2023-02-14T14:10:07.230Z,18.10
2023-02-14T14:12:54.648Z,16.63
2023-02-14T14:16:02.225Z,17.63
2023-02-14T14:19:04.871Z,16.70
2023-02-14T14:22:01.492Z,16.17
2023-02-14T14:24:53.880Z,17.53
2023-02-14T14:27:42.916Z,17.00
2023-02-14T14:30:33.420Z,16.93
2023-02-14T14:33:29.321Z,17.27
2023-02-14T14:36:23.113Z,16.23
2023-02-14T14:39:10.779Z,17.00
2023-02-14T14:42:06.971Z,16.57
2023-02-14T14:44:54.403Z,17.67
2023-02-14T14:47:43.646Z,17.90
2023-02-14T14:50:32.965Z,16.83
2023-02-14T14:53:22.543Z,17.67
2023-02-14T14:56:23.932Z,17.33
2023-02-14T14:59:18.744Z,17.03
2023-02-14T15:02:21.249Z,16.00
2023-02-14T15:05:23.773Z,17.67
2023-02-14T15:08:20.111Z,16.57
2023-02-14T15:11:09.993Z,15.70
2023-02-14T15:13:58.265Z,16.57
2023-02-14T15:16:47.614Z,15.70
2023-02-14T15:19:38.526Z,16.37
2023-02-14T15:22:30.151Z,15.70
2023-02-14T15:25:19.712Z,17.20
2023-02-14T15:28:07.236Z,15.67
2023-02-14T15:30:59.699Z,15.17
2023-02-14T15:33:47.448Z,15.23
2023-02-14T15:36:35.311Z,16.27
2023-02-14T15:39:24.238Z,15.90
2023-02-14T15:42:25.048Z,15.93
2023-02-14T15:45:24.057Z,15.87
2023-02-14T15:48:14.167Z,16.40
2023-02-14T15:51:04.958Z,15.43
2023-02-14T15:53:54.198Z,15.27
2023-02-14T15:56:43.629Z,16.63
2023-02-14T15:59:33.400Z,14.77
2023-02-14T16:02:50.754Z,14.63
2023-02-14T16:05:38.653Z,14.63
2023-02-14T16:08:32.795Z,14.67
2023-02-14T16:11:31.704Z,15.83
2023-02-14T16:14:31.893Z,16.02
2023-02-14T16:17:31.298Z,16.00
2023-02-14T16:20:24.871Z,15.33
2023-02-14T16:23:18.228Z,20.35
2023-02-14T16:26:09.138Z,16.63
2023-02-14T16:28:56.514Z,16.93
2023-02-14T16:32:06.265Z,19.80
2023-02-14T16:34:52.678Z,19.23
2023-02-14T16:37:40.056Z,17.23
2023-02-14T16:40:28.038Z,16.13
2023-02-14T16:43:16.259Z,17.23
2023-02-14T16:46:03.706Z,17.20
2023-02-14T16:48:52.234Z,16.47
2023-02-14T16:51:42.617Z,15.27
2023-02-14T16:54:29.968Z,16.07
2023-02-14T16:57:19.701Z,15.70
2023-02-14T17:00:07.700Z,22.83
2023-02-14T17:03:06.159Z,26.63
2023-02-14T17:05:53.946Z,28.03
2023-02-14T17:08:41.832Z,32.87
2023-02-14T17:11:32.078Z,29.75
2023-02-14T17:14:23.028Z,21.90
2023-02-14T17:17:10.772Z,19.17
2023-02-14T17:19:58.425Z,19.10
2023-02-14T17:22:45.803Z,16.80
2023-02-14T17:25:33.261Z,16.90
2023-02-14T17:28:20.684Z,17.53
2023-02-14T17:31:08.296Z,23.33
2023-02-14T17:33:55.939Z,19.63
2023-02-14T17:36:43.337Z,17.50
2023-02-14T17:39:30.937Z,20.53
2023-02-14T17:42:18.287Z,22.23
2023-02-14T17:45:06.608Z,20.27
2023-02-14T17:47:53.969Z,19.43
2023-02-14T17:50:41.672Z,17.63
2023-02-14T17:53:29.038Z,17.43
2023-02-14T17:56:20.865Z,17.73
2023-02-14T17:59:08.201Z,19.20
2023-02-14T18:01:55.651Z,17.73
2023-02-14T18:04:43.041Z,16.33
2023-02-14T18:07:30.479Z,14.90
2023-02-14T18:10:18.049Z,15.57
2023-02-14T18:13:05.478Z,14.83
2023-02-14T18:15:53.565Z,15.27
2023-02-14T18:18:41.327Z,13.97
2023-02-14T18:21:29.434Z,14.97
2023-02-14T18:24:16.924Z,14.47
2023-02-14T18:27:05.967Z,14.53
2023-02-14T18:29:54.524Z,17.47
2023-02-14T18:32:41.934Z,16.40
2023-02-14T18:35:29.282Z,16.57
2023-02-14T18:38:16.649Z,16.37
2023-02-14T18:41:04.629Z,15.80
2023-02-14T18:43:52.373Z,18.30
2023-02-14T18:46:40.162Z,16.63
2023-02-14T18:49:27.626Z,18.70
2023-02-14T18:52:15.057Z,18.77
2023-02-14T18:55:02.425Z,19.77
2023-02-14T18:57:49.766Z,22.57
2023-02-14T19:00:37.259Z,21.27
2023-02-14T19:03:24.648Z,19.53
2023-02-14T19:06:12.946Z,19.60
2023-02-14T19:09:01.308Z,19.10
2023-02-14T19:11:48.696Z,19.20
2023-02-14T19:14:36.601Z,18.50
2023-02-14T19:17:24.178Z,19.43
2023-02-14T19:20:12.507Z,18.77
2023-02-14T19:22:59.841Z,18.93
2023-02-14T19:25:47.261Z,19.27
2023-02-14T19:28:34.629Z,19.10
2023-02-14T19:31:22.100Z,18.97
2023-02-14T19:34:15.569Z,20.33
2023-02-14T19:37:02.993Z,20.47
2023-02-14T19:39:50.346Z,20.50
2023-02-14T19:42:37.806Z,20.13
2023-02-14T19:45:27.269Z,20.30
2023-02-14T19:48:14.618Z,21.90
2023-02-14T19:51:02.375Z,29.40
2023-02-14T19:53:51.297Z,23.63
2023-02-14T19:56:42.934Z,25.97
2023-02-14T19:59:32.796Z,25.47
2023-02-14T20:02:20.945Z,22.27
2023-02-14T20:05:08.432Z,22.37
2023-02-14T20:07:55.941Z,21.67
2023-02-14T20:10:43.352Z,21.43
2023-02-14T20:13:30.690Z,21.17
2023-02-14T20:16:18.081Z,21.97
2023-02-14T20:19:08.082Z,22.00
2023-02-14T20:21:55.875Z,20.20
2023-02-14T20:24:43.217Z,20.63
2023-02-14T20:27:30.546Z,20.63
2023-02-14T20:30:20.673Z,21.63
2023-02-14T20:33:08.085Z,19.77
2023-02-14T20:35:55.459Z,20.23
2023-02-14T20:38:42.873Z,19.33
2023-02-14T20:41:30.726Z,20.33
2023-02-14T20:44:22.749Z,19.80
2023-02-14T20:47:10.873Z,19.83
2023-02-14T20:49:58.203Z,20.23
2023-02-14T20:52:45.995Z,20.77
2023-02-14T20:55:33.393Z,20.20
2023-02-14T20:58:20.765Z,21.00
2023-02-14T21:01:09.223Z,21.90
2023-02-14T21:03:56.741Z,19.53
2023-02-14T21:06:44.165Z,20.80
2023-02-14T21:09:32.800Z,20.47
2023-02-14T21:12:20.574Z,21.27
2023-02-14T21:15:08.184Z,20.03
2023-02-14T21:17:55.529Z,19.90
2023-02-14T21:20:42.873Z,19.23
2023-02-14T21:23:30.258Z,19.80
2023-02-14T21:26:17.791Z,19.70
2023-02-14T21:29:05.919Z,19.00
2023-02-14T21:31:53.380Z,20.90
2023-02-14T21:34:40.829Z,21.37
2023-02-14T21:37:28.149Z,20.67
2023-02-14T21:40:15.545Z,20.33
2023-02-14T21:43:03.227Z,20.20
2023-02-14T21:45:53.556Z,19.47
2023-02-14T21:48:59.899Z,20.23
2023-02-14T21:51:47.590Z,19.57
2023-02-14T21:54:34.946Z,18.87
2023-02-14T21:57:22.314Z,19.53
2023-02-14T22:00:09.938Z,19.10
2023-02-14T22:02:57.372Z,19.53
2023-02-14T22:05:44.780Z,19.40
2023-02-14T22:08:32.968Z,20.50
2023-02-14T22:11:20.668Z,20.37
2023-02-14T22:14:08.298Z,20.20
2023-02-14T22:16:55.978Z,19.00
2023-02-14T22:19:43.309Z,18.53
2023-02-14T22:22:32.889Z,18.10
2023-02-14T22:25:20.247Z,17.70
2023-02-14T22:28:07.610Z,18.03
2023-02-14T22:30:55.066Z,18.43
2023-02-14T22:33:42.489Z,18.07
2023-02-14T22:36:29.885Z,17.73
2023-02-14T22:39:17.636Z,17.93
2023-02-14T22:42:06.786Z,18.03
2023-02-14T22:44:54.133Z,18.30
2023-02-14T22:47:41.527Z,16.87
2023-02-14T22:50:28.971Z,17.90
2023-02-14T22:53:16.304Z,17.73
2023-02-14T22:56:11.113Z,16.97
2023-02-14T22:58:59.728Z,17.87
2023-02-14T23:01:47.569Z,16.70
2023-02-14T23:04:34.979Z,17.63
2023-02-14T23:07:22.408Z,16.67
2023-02-14T23:10:10.096Z,16.53
2023-02-14T23:13:16.058Z,16.23
2023-02-14T23:16:22.405Z,16.77
2023-02-14T23:19:32.554Z,17.30
2023-02-14T23:22:21.149Z,17.87
2023-02-14T23:25:09.958Z,17.67
2023-02-14T23:27:57.330Z,16.83
2023-02-14T23:30:44.681Z,17.30
2023-02-14T23:33:32.091Z,16.53
2023-02-14T23:36:19.471Z,15.33
2023-02-14T23:39:07.288Z,17.10
2023-02-14T23:41:55.169Z,17.43
2023-02-14T23:44:45.558Z,15.93
2023-02-14T23:47:34.426Z,16.90
2023-02-14T23:50:21.993Z,15.80
2023-02-14T23:53:09.368Z,15.23
2023-02-14T23:56:00.974Z,15.17
2023-02-14T23:58:48.519Z,16.67
